sensor_id;sensor_type;location;lat;lon;timestamp;pressure;altitude;pressure_sealevel;temperature;humidity
11643;BME280;5877;50.930;6.918;2023-01-16T04:25:12;98592.97;;;3.81;75.49
11643;BME280;5877;50.930;6.918;2023-01-16T04:30:05;98599.44;;;3.90;75.57
11643;BME280;5877;50.930;6.918;2023-01-16T04:34:57;98597.66;;;3.91;76.00
11643;BME280;5877;50.930;6.918;2023-01-16T04:39:49;98560.03;;;3.82;75.34
11643;BME280;5877;50.930;6.918;2023-01-16T04:44:41;98605.81;;;4.24;75.38
11643;BME280;5877;50.930;6.918;2023-01-16T04:49:33;98519.22;;;3.89;74.98
11643;BME280;5877;50.930;6.918;2023-01-16T04:54:24;98576.50;;;4.36;74.72
11643;BME280;5877;50.930;6.918;2023-01-16T04:59:16;98400.50;;;3.43;74.28
11643;BME280;5877;50.930;6.918;2023-01-16T05:04:10;98540.88;;;4.54;73.82
11643;BME280;5877;50.930;6.918;2023-01-16T05:09:04;98479.59;;;4.23;73.45
11643;BME280;5877;50.930;6.918;2023-01-16T05:13:56;98514.56;;;4.63;72.99
11643;BME280;5877;50.930;6.918;2023-01-16T05:18:48;98413.31;;;4.09;72.80
11643;BME280;5877;50.930;6.918;2023-01-16T05:23:40;98489.28;;;4.70;73.58
11643;BME280;5877;50.930;6.918;2023-01-16T05:28:33;98441.38;;;4.54;73.85
11643;BME280;5877;50.930;6.918;2023-01-16T05:33:25;98355.66;;;4.07;73.41
11643;BME280;5877;50.930;6.918;2023-01-16T05:38:17;98351.16;;;4.14;73.11
11643;BME280;5877;50.930;6.918;2023-01-16T05:43:09;98428.59;;;4.76;73.26
11643;BME280;5877;50.930;6.918;2023-01-16T05:48:01;98414.34;;;4.78;73.42
11643;BME280;5877;50.930;6.918;2023-01-16T05:52:53;98407.59;;;4.77;72.34
11643;BME280;5877;50.930;6.918;2023-01-16T05:57:45;98399.91;;;4.82;73.33
11643;BME280;5877;50.930;6.918;2023-01-16T06:02:37;98371.66;;;4.74;72.44
11643;BME280;5877;50.930;6.918;2023-01-16T06:07:29;98382.13;;;4.91;72.16
11643;BME280;5877;50.930;6.918;2023-01-16T06:12:20;98256.88;;;4.26;72.19
11643;BME280;5877;50.930;6.918;2023-01-16T06:17:13;98351.38;;;5.00;72.84
11643;BME280;5877;50.930;6.918;2023-01-16T06:22:07;98293.16;;;4.72;72.21
11643;BME280;5877;50.930;6.918;2023-01-16T06:26:59;98314.44;;;4.98;72.17
11643;BME280;5877;50.930;6.918;2023-01-16T06:31:50;98284.53;;;4.83;73.10
11643;BME280;5877;50.930;6.918;2023-01-16T06:36:42;98161.41;;;4.16;72.86
11643;BME280;5877;50.930;6.918;2023-01-16T06:41:37;98264.28;;;4.85;73.40
11643;BME280;5877;50.930;6.918;2023-01-16T06:46:29;98164.41;;;4.36;72.89
11643;BME280;5877;50.930;6.918;2023-01-16T06:51:21;98235.16;;;4.83;73.35
11643;BME280;5877;50.930;6.918;2023-01-16T06:56:12;98244.06;;;4.87;73.38
11643;BME280;5877;50.930;6.918;2023-01-16T07:01:04;98202.66;;;4.69;72.69
11643;BME280;5877;50.930;6.918;2023-01-16T07:05:56;98071.16;;;4.06;72.45
11643;BME280;5877;50.930;6.918;2023-01-16T07:10:48;98143.22;;;4.56;73.00
11643;BME280;5877;50.930;6.918;2023-01-16T07:15:46;98105.31;;;4.43;72.51
11643;BME280;5877;50.930;6.918;2023-01-16T07:21:00;98065.50;;;4.38;72.41
11643;BME280;5877;50.930;6.918;2023-01-16T07:26:13;98122.69;;;4.88;71.50
11643;BME280;5877;50.930;6.918;2023-01-16T07:31:06;98103.00;;;4.92;70.99
11643;BME280;5877;50.930;6.918;2023-01-16T07:35:58;97914.94;;;3.76;71.49
11643;BME280;5877;50.930;6.918;2023-01-16T07:40:50;98004.28;;;4.59;70.94
11643;BME280;5877;50.930;6.918;2023-01-16T07:45:42;98072.53;;;5.04;71.95
11643;BME280;5877;50.930;6.918;2023-01-16T07:50:35;97881.47;;;3.74;75.64
11643;BME280;5877;50.930;6.918;2023-01-16T07:55:28;97931.63;;;3.97;75.73
11643;BME280;5877;50.930;6.918;2023-01-16T08:00:19;97987.50;;;4.33;76.26
11643;BME280;5877;50.930;6.918;2023-01-16T08:05:11;98044.28;;;4.74;75.69
11643;BME280;5877;50.930;6.918;2023-01-16T08:10:04;98024.81;;;4.77;74.56
11643;BME280;5877;50.930;6.918;2023-01-16T08:14:56;97950.28;;;4.44;74.96
11643;BME280;5877;50.930;6.918;2023-01-16T08:19:47;97982.47;;;4.76;73.48
11643;BME280;5877;50.930;6.918;2023-01-16T08:24:39;97929.59;;;4.49;73.93
11643;BME280;5877;50.930;6.918;2023-01-16T08:29:30;97928.22;;;4.63;72.74
11643;BME280;5877;50.930;6.918;2023-01-16T08:34:22;97853.94;;;4.23;72.83
11643;BME280;5877;50.930;6.918;2023-01-16T08:39:14;97951.47;;;4.92;72.49
11643;BME280;5877;50.930;6.918;2023-01-16T08:44:05;97917.81;;;4.80;73.03
11643;BME280;5877;50.930;6.918;2023-01-16T08:56:07;97890.91;;;4.69;72.80
11643;BME280;5877;50.930;6.918;2023-01-16T09:00:59;97753.56;;;3.74;72.30
11643;BME280;5877;50.930;6.918;2023-01-16T09:05:53;97839.38;;;4.22;73.93
11643;BME280;5877;50.930;6.918;2023-01-16T09:10:45;97803.13;;;4.11;73.81
11643;BME280;5877;50.930;6.918;2023-01-16T09:16:01;97838.00;;;4.37;73.30
11643;BME280;5877;50.930;6.918;2023-01-16T09:20:53;97775.06;;;4.08;72.96
11643;BME280;5877;50.930;6.918;2023-01-16T09:25:46;97870.56;;;4.83;72.55
11643;BME280;5877;50.930;6.918;2023-01-16T09:30:37;97762.28;;;4.23;72.69
11643;BME280;5877;50.930;6.918;2023-01-16T09:35:29;97854.00;;;4.89;72.93
11643;BME280;5877;50.930;6.918;2023-01-16T09:40:21;97797.16;;;4.49;72.35
11643;BME280;5877;50.930;6.918;2023-01-16T09:45:16;97843.31;;;4.85;72.68
11643;BME280;5877;50.930;6.918;2023-01-16T09:50:22;97844.38;;;4.89;72.57
11643;BME280;5877;50.930;6.918;2023-01-16T09:55:21;97734.03;;;4.27;72.15
11643;BME280;5877;50.930;6.918;2023-01-16T10:00:35;97833.69;;;5.08;71.85
11643;BME280;5877;50.930;6.918;2023-01-16T10:05:34;97781.84;;;4.74;71.15
11643;BME280;5877;50.930;6.918;2023-01-16T10:10:48;97815.22;;;5.09;71.23
11643;BME280;5877;50.930;6.918;2023-01-16T10:26:08;97676.13;;;4.75;69.61
11643;BME280;5877;50.930;6.918;2023-01-16T10:31:08;97654.34;;;4.54;69.95
11643;BME280;5877;50.930;6.918;2023-01-16T10:36:03;97703.13;;;5.01;69.65
11643;BME280;5877;50.930;6.918;2023-01-16T10:40:55;97637.88;;;4.70;69.52
11643;BME280;5877;50.930;6.918;2023-01-16T10:45:48;97741.28;;;5.27;70.58
11643;BME280;5877;50.930;6.918;2023-01-16T10:50:59;97736.66;;;5.34;69.67
11643;BME280;5877;50.930;6.918;2023-01-16T10:55:52;97717.44;;;5.40;69.66
11643;BME280;5877;50.930;6.918;2023-01-16T11:00:45;97678.63;;;5.29;69.31
11643;BME280;5877;50.930;6.918;2023-01-16T11:05:37;97617.78;;;5.30;68.45
11643;BME280;5877;50.930;6.918;2023-01-16T11:10:29;97685.91;;;5.69;69.46
11643;BME280;5877;50.930;6.918;2023-01-16T11:15:23;97683.03;;;5.70;68.64
11643;BME280;5877;50.930;6.918;2023-01-16T11:20:35;97552.63;;;5.57;67.19
11643;BME280;5877;50.930;6.918;2023-01-16T11:25:30;97581.22;;;6.19;66.94
11643;BME280;5877;50.930;6.918;2023-01-16T11:30:32;97514.69;;;5.66;66.88
11643;BME280;5877;50.930;6.918;2023-01-16T11:35:31;97630.94;;;6.12;67.48
11643;BME280;5877;50.930;6.918;2023-01-16T11:40:25;97626.31;;;6.30;67.28
11643;BME280;5877;50.930;6.918;2023-01-16T11:45:22;97605.72;;;6.28;67.10
11643;BME280;5877;50.930;6.918;2023-01-16T11:50:36;97603.94;;;6.49;65.95
11643;BME280;5877;50.930;6.918;2023-01-16T12:06:01;97563.63;;;5.74;68.35
11643;BME280;5877;50.930;6.918;2023-01-16T12:11:04;97531.84;;;5.67;68.49
11643;BME280;5877;50.930;6.918;2023-01-16T12:21:03;97423.69;;;4.46;73.97
11643;BME280;5877;50.930;6.918;2023-01-16T12:41:33;97402.94;;;5.03;72.94
11643;BME280;5877;50.930;6.918;2023-01-16T13:02:51;97391.03;;;5.33;72.80
11643;BME280;5877;50.930;6.918;2023-01-16T13:08:33;97403.53;;;5.41;72.35
11643;BME280;5877;50.930;6.918;2023-01-16T13:13:04;96913.44;;;2.59;72.07
11643;BME280;5877;50.930;6.918;2023-01-16T13:18:23;97367.19;;;5.86;71.32
11643;BME280;5877;50.930;6.918;2023-01-16T13:23:20;97361.44;;;5.74;71.35
11643;BME280;5877;50.930;6.918;2023-01-16T13:33:31;97322.66;;;5.42;73.13
11643;BME280;5877;50.930;6.918;2023-01-16T13:49:24;97308.88;;;5.27;74.65
11643;BME280;5877;50.930;6.918;2023-01-16T13:54:23;97306.28;;;5.27;74.69
11643;BME280;5877;50.930;6.918;2023-01-16T13:59:29;97277.69;;;5.16;75.04
11643;BME280;5877;50.930;6.918;2023-01-16T14:04:31;97261.56;;;5.09;75.38
11643;BME280;5877;50.930;6.918;2023-01-16T14:09:23;97249.53;;;4.73;78.83
11643;BME280;5877;50.930;6.918;2023-01-16T14:14:27;97284.38;;;4.82;80.48
11643;BME280;5877;50.930;6.918;2023-01-16T14:20:01;97283.59;;;4.86;80.55
11643;BME280;5877;50.930;6.918;2023-01-16T14:24:57;97123.69;;;3.98;79.76
11643;BME280;5877;50.930;6.918;2023-01-16T14:29:51;97252.44;;;4.92;79.44
11643;BME280;5877;50.930;6.918;2023-01-16T14:39:50;97108.16;;;4.18;78.68
11643;BME280;5877;50.930;6.918;2023-01-16T14:44:59;97209.31;;;5.01;78.29
11643;BME280;5877;50.930;6.918;2023-01-16T14:50:54;97205.94;;;4.95;77.40
11643;BME280;5877;50.930;6.918;2023-01-16T14:56:12;97169.28;;;4.86;77.18
11643;BME280;5877;50.930;6.918;2023-01-16T15:01:07;97204.13;;;5.11;77.03
11643;BME280;5877;50.930;6.918;2023-01-16T15:06:30;97208.78;;;5.24;76.86
11643;BME280;5877;50.930;6.918;2023-01-16T15:11:27;97135.00;;;4.84;75.90
11643;BME280;5877;50.930;6.918;2023-01-16T15:16:25;97204.88;;;5.27;75.94
11643;BME280;5877;50.930;6.918;2023-01-16T15:21:45;97124.06;;;4.77;75.94
11643;BME280;5877;50.930;6.918;2023-01-16T15:26:58;97118.38;;;4.80;76.21
11643;BME280;5877;50.930;6.918;2023-01-16T15:31:58;97137.59;;;4.89;76.21
11643;BME280;5877;50.930;6.918;2023-01-16T15:36:54;97187.19;;;5.23;75.41
11643;BME280;5877;50.930;6.918;2023-01-16T15:41:53;97138.38;;;4.90;75.01
11643;BME280;5877;50.930;6.918;2023-01-16T15:52:35;97105.63;;;4.59;76.35
11643;BME280;5877;50.930;6.918;2023-01-16T15:57:31;97145.66;;;4.88;76.91
11643;BME280;5877;50.930;6.918;2023-01-16T16:02:25;97159.94;;;5.01;77.62
11643;BME280;5877;50.930;6.918;2023-01-16T16:07:20;97181.75;;;5.10;77.85
11643;BME280;5877;50.930;6.918;2023-01-16T16:12:12;97177.59;;;5.04;77.57
11643;BME280;5877;50.930;6.918;2023-01-16T16:17:17;97135.75;;;4.75;77.66
11643;BME280;5877;50.930;6.918;2023-01-16T16:22:28;97130.84;;;4.73;78.26
11643;BME280;5877;50.930;6.918;2023-01-16T16:27:41;96908.78;;;3.29;79.39
11643;BME280;5877;50.930;6.918;2023-01-16T16:32:35;97095.22;;;4.48;78.75
11643;BME280;5877;50.930;6.918;2023-01-16T16:37:28;97160.97;;;4.79;78.48
11643;BME280;5877;50.930;6.918;2023-01-16T16:42:45;97167.22;;;4.83;80.37
11643;BME280;5877;50.930;6.918;2023-01-16T16:47:38;97173.72;;;4.91;79.77
11643;BME280;5877;50.930;6.918;2023-01-16T16:52:36;97127.69;;;4.56;79.79
11643;BME280;5877;50.930;6.918;2023-01-16T16:57:51;97131.34;;;4.60;80.83
11643;BME280;5877;50.930;6.918;2023-01-16T17:03:09;97086.34;;;4.09;80.90
11643;BME280;5877;50.930;6.918;2023-01-16T17:07:57;97069.44;;;3.91;80.20
11643;BME280;5877;50.930;6.918;2023-01-16T17:12:49;97189.00;;;4.67;81.33
11643;BME280;5877;50.930;6.918;2023-01-16T17:17:41;97030.41;;;3.55;81.42
11643;BME280;5877;50.930;6.918;2023-01-16T17:22:35;97186.16;;;4.64;81.60
11643;BME280;5877;50.930;6.918;2023-01-16T17:27:27;97091.00;;;4.07;82.41
11643;BME280;5877;50.930;6.918;2023-01-16T17:32:26;97190.84;;;4.77;81.58
11643;BME280;5877;50.930;6.918;2023-01-16T17:37:21;97105.84;;;4.21;81.49
11643;BME280;5877;50.930;6.918;2023-01-16T17:42:13;97173.94;;;4.74;80.75
11643;BME280;5877;50.930;6.918;2023-01-16T17:47:05;97124.81;;;4.42;80.83
11643;BME280;5877;50.930;6.918;2023-01-16T17:51:57;97206.44;;;4.97;80.10
11643;BME280;5877;50.930;6.918;2023-01-16T17:56:49;97209.06;;;4.97;80.02
11643;BME280;5877;50.930;6.918;2023-01-16T18:01:40;97210.09;;;5.06;79.92
11643;BME280;5877;50.930;6.918;2023-01-16T18:06:33;97212.44;;;5.08;78.46
11643;BME280;5877;50.930;6.918;2023-01-16T18:11:25;97170.84;;;4.82;78.60
11643;BME280;5877;50.930;6.918;2023-01-16T18:16:35;97221.28;;;5.17;77.99
11643;BME280;5877;50.930;6.918;2023-01-16T18:21:46;97136.53;;;4.55;78.31
11643;BME280;5877;50.930;6.918;2023-01-16T18:26:53;97227.53;;;5.16;78.37
11643;BME280;5877;50.930;6.918;2023-01-16T18:31:44;97159.66;;;4.67;78.31
11643;BME280;5877;50.930;6.918;2023-01-16T18:36:56;97181.22;;;4.77;78.95
11643;BME280;5877;50.930;6.918;2023-01-16T18:41:47;97158.88;;;4.56;79.32
11643;BME280;5877;50.930;6.918;2023-01-16T18:46:58;97168.19;;;4.52;79.35
11643;BME280;5877;50.930;6.918;2023-01-16T18:52:14;97209.00;;;4.67;80.11
11643;BME280;5877;50.930;6.918;2023-01-16T18:57:26;97274.31;;;5.11;80.33
11643;BME280;5877;50.930;6.918;2023-01-16T19:07:31;97149.44;;;4.19;80.76
11643;BME280;5877;50.930;6.918;2023-01-16T19:12:27;97296.13;;;5.05;79.39
11643;BME280;5877;50.930;6.918;2023-01-16T19:17:19;97289.09;;;4.95;78.90
11643;BME280;5877;50.930;6.918;2023-01-16T19:22:11;97280.97;;;4.76;79.40
11643;BME280;5877;50.930;6.918;2023-01-16T19:27:04;97193.53;;;4.14;80.74
11643;BME280;5877;50.930;6.918;2023-01-16T19:31:56;97321.56;;;4.93;81.26
11643;BME280;5877;50.930;6.918;2023-01-16T19:36:49;97249.69;;;4.41;80.98
11643;BME280;5877;50.930;6.918;2023-01-16T19:41:41;97361.34;;;5.03;80.97
11643;BME280;5877;50.930;6.918;2023-01-16T19:46:52;97360.84;;;5.11;80.68
11643;BME280;5877;50.930;6.918;2023-01-16T19:51:43;97187.44;;;3.83;80.20
11643;BME280;5877;50.930;6.918;2023-01-16T19:56:36;97387.63;;;5.07;79.66
11643;BME280;5877;50.930;6.918;2023-01-16T20:01:27;97246.44;;;4.08;79.64
11643;BME280;5877;50.930;6.918;2023-01-16T20:06:19;97313.59;;;4.47;78.59
11643;BME280;5877;50.930;6.918;2023-01-16T20:11:13;97398.94;;;4.80;79.72
11643;BME280;5877;50.930;6.918;2023-01-16T20:16:06;97412.38;;;4.67;81.24
11643;BME280;5877;50.930;6.918;2023-01-16T20:21:03;97414.19;;;4.67;81.36
11643;BME280;5877;50.930;6.918;2023-01-16T20:25:59;97359.16;;;4.22;80.37
11643;BME280;5877;50.930;6.918;2023-01-16T20:30:51;97353.38;;;4.10;79.69
11643;BME280;5877;50.930;6.918;2023-01-16T20:35:48;97459.22;;;4.82;78.89
11643;BME280;5877;50.930;6.918;2023-01-16T20:40:40;97471.19;;;4.83;79.24
11643;BME280;5877;50.930;6.918;2023-01-16T20:45:32;97417.78;;;4.55;79.74
11643;BME280;5877;50.930;6.918;2023-01-16T20:50:42;97413.75;;;4.33;78.36
11643;BME280;5877;50.930;6.918;2023-01-16T20:55:33;97404.91;;;4.34;76.57
11643;BME280;5877;50.930;6.918;2023-01-16T21:00:29;97444.53;;;4.56;75.49
11643;BME280;5877;50.930;6.918;2023-01-16T21:05:21;97530.75;;;4.95;75.96
11643;BME280;5877;50.930;6.918;2023-01-16T21:10:13;97459.47;;;4.39;76.60
11643;BME280;5877;50.930;6.918;2023-01-16T21:15:05;97556.56;;;5.07;75.60
11643;BME280;5877;50.930;6.918;2023-01-16T21:19:56;97569.84;;;5.10;75.75
11643;BME280;5877;50.930;6.918;2023-01-16T21:25:07;97581.56;;;5.13;74.42
11643;BME280;5877;50.930;6.918;2023-01-16T21:30:01;97590.31;;;5.02;74.36
11643;BME280;5877;50.930;6.918;2023-01-16T21:34:53;97586.91;;;4.96;76.10
11643;BME280;5877;50.930;6.918;2023-01-16T21:39:45;97562.50;;;4.65;78.35
11643;BME280;5877;50.930;6.918;2023-01-16T21:44:37;97618.34;;;4.95;79.03
11643;BME280;5877;50.930;6.918;2023-01-16T21:49:51;97542.66;;;4.22;79.40
11643;BME280;5877;50.930;6.918;2023-01-16T21:54:42;97551.78;;;4.24;79.47
11643;BME280;5877;50.930;6.918;2023-01-16T21:59:34;97635.69;;;4.57;78.53
11643;BME280;5877;50.930;6.918;2023-01-16T22:04:26;97558.53;;;3.99;78.44
11643;BME280;5877;50.930;6.918;2023-01-16T22:09:18;97651.28;;;4.57;77.25
11643;BME280;5877;50.930;6.918;2023-01-16T22:14:10;97660.63;;;4.58;76.92
11643;BME280;5877;50.930;6.918;2023-01-16T22:19:20;97656.03;;;4.38;77.56
11643;BME280;5877;50.930;6.918;2023-01-16T22:24:15;97408.06;;;2.52;76.34
11643;BME280;5877;50.930;6.918;2023-01-16T22:29:07;97618.94;;;3.94;76.70
11643;BME280;5877;50.930;6.918;2023-01-16T22:33:59;97687.03;;;4.50;76.92
11643;BME280;5877;50.930;6.918;2023-01-16T22:38:52;97644.38;;;4.19;76.62
11643;BME280;5877;50.930;6.918;2023-01-16T22:43:45;97700.81;;;4.50;77.05
11643;BME280;5877;50.930;6.918;2023-01-16T22:48:57;97618.16;;;3.72;78.09
11643;BME280;5877;50.930;6.918;2023-01-16T22:53:49;97627.25;;;3.74;78.61
11643;BME280;5877;50.930;6.918;2023-01-16T22:58:41;97599.19;;;3.49;78.14
11643;BME280;5877;50.930;6.918;2023-01-16T23:03:33;97718.41;;;4.21;79.82
11643;BME280;5877;50.930;6.918;2023-01-16T23:08:25;97732.09;;;4.17;79.21
11643;BME280;5877;50.930;6.918;2023-01-16T23:13:17;97747.50;;;4.23;78.50
11643;BME280;5877;50.930;6.918;2023-01-16T23:18:08;97683.91;;;3.82;77.09
11643;BME280;5877;50.930;6.918;2023-01-16T23:23:00;97607.03;;;3.16;76.85
11643;BME280;5877;50.930;6.918;2023-01-16T23:27:52;97778.94;;;4.27;77.88
11643;BME280;5877;50.930;6.918;2023-01-16T23:32:44;97724.78;;;3.92;77.06
11643;BME280;5877;50.930;6.918;2023-01-16T23:37:35;97695.28;;;3.59;77.66
11643;BME280;5877;50.930;6.918;2023-01-16T23:42:27;97704.31;;;3.40;77.55
11643;BME280;5877;50.930;6.918;2023-01-16T23:47:37;97787.97;;;4.03;79.78
11643;BME280;5877;50.930;6.918;2023-01-16T23:52:29;97755.06;;;3.53;79.49
11643;BME280;5877;50.930;6.918;2023-01-16T23:57:23;97764.19;;;3.55;79.50
